Buoy 41560

sailwx.info

Track history (hours):
 
Tides and Currents Weather Stations Pressure Air Temp Water Temp Dewpoint Dewpoint Depression Visibility Wind Speed Wind Dir Waves Ship Positions

Drifting buoy 41560

Last reported at 2014-Nov-21 23:00 UTC. Time now 2014-Nov-22 03:05 UTC.
Position N 35°53' W 019°45'.

Barometer 1015.5 mb

Date/timePositionNaut miles runAvg speedWind from/ knotsBaromVisibWave heightAir tempDewpointWater temp
2014-Nov-21 23:00N 35°53' W 019°45'0 0.0 1015.5
2014-Nov-21 21:00N 35°53' W 019°45'1 1.3 1014.9
2014-Nov-21 20:00N 35°55' W 019°46'1 0.3 1014.1
2014-Nov-21 18:00N 35°54' W 019°46'1 0.8 1013.3
2014-Nov-21 17:00N 35°55' W 019°46'1 0.6 1013.0
2014-Nov-21 16:00N 35°55' W 019°46'1 0.4 1012.6
2014-Nov-21 14:00N 35°56' W 019°47'3 0.9 1012.6
2014-Nov-21 11:00N 35°57' W 019°50'0 0.0 1013.6
2014-Nov-21 10:00N 35°57' W 019°50'2 1.9 1013.0
2014-Nov-21 09:00N 35°57' W 019°52'0 0.0 1011.8
2014-Nov-21 08:00N 35°57' W 019°52'0 0.0 1011.8
2014-Nov-21 06:00N 35°57' W 019°52'1 0.8 1009.5
2014-Nov-21 05:00N 35°56' W 019°53'1 1.0 1010.0
2014-Nov-21 04:00N 35°56' W 019°52'1 1.1 1009.7
2014-Nov-21 03:00N 35°57' W 019°53'0 0.5 1009.5
2014-Nov-21 02:00N 35°57' W 019°53'1 0.2 1008.7
2014-Nov-20 22:00N 35°57' W 019°55'2 1.0 1007.0
2014-Nov-20 20:00N 35°59' W 019°56'1 0.8 1006.6
2014-Nov-20 19:00N 35°58' W 019°56'1 0.8 1005.4
2014-Nov-20 18:00N 35°59' W 019°56'1 0.7 1004.7
2014-Nov-20 17:00N 35°59' W 019°57'0 0.3 1004.1
2014-Nov-20 16:00N 35°59' W 019°56'2 1.2 1003.5
2014-Nov-20 14:00N 36°01' W 019°58'0 0.2 1004.1
2014-Nov-20 12:00N 36°01' W 019°59'1 1.0 1004.8
2014-Nov-20 11:00N 36°01' W 020°00'1 0.8 1004.9
2014-Nov-20 10:00N 36°02' W 019°59'0 0.0 1005.1
2014-Nov-20 09:00N 36°02' W 019°59'1 1.1 1004.8
2014-Nov-20 08:00N 36°02' W 020°01'1 0.8 1004.1
2014-Nov-20 07:00N 36°03' W 020°01'1 0.6 1003.8
2014-Nov-20 06:00N 36°04' W 020°01'0 0.0 1003.6
2014-Nov-20 05:00N 36°04' W 020°01'1 1.3 1004.0
2014-Nov-20 04:00N 36°05' W 020°02'0 0.0 1004.1
2014-Nov-20 03:00N 36°05' W 020°02'2 1.9 1004.2
2014-Nov-20 02:00N 36°07' W 020°02'2 0.6 1004.5
2014-Nov-19 23:00N 36°08' W 020°02'0 0.2 1004.9
2014-Nov-19 22:00N 36°08' W 020°02'1 0.8 1004.9
2014-Nov-19 21:00N 36°09' W 020°02'1 0.8 1004.8
2014-Nov-19 20:00N 36°10' W 020°02'0 0.5 1004.7
2014-Nov-19 19:00N 36°10' W 020°02'2 1.5 1004.3
2014-Nov-19 18:00N 36°11' W 020°01'1 1.0 1004.0
2014-Nov-19 17:00N 36°11' W 020°02'1 1.3 1003.6
2014-Nov-19 16:00N 36°12' W 020°01'2 1.0 1003.6
2014-Nov-19 14:00N 36°14' W 020°00'1 0.6 1004.0
2014-Nov-19 12:00N 36°15' W 020°00'0 0.5 1005.3
2014-Nov-19 11:00N 36°15' W 020°01'2 1.6 1005.4
2014-Nov-19 10:00N 36°16' W 019°59'1 1.3 1005.4
2014-Nov-19 09:00N 36°17' W 019°59'1 0.4 1005.1
2014-Nov-19 07:00N 36°17' W 019°59'1 0.6 1004.7
2014-Nov-19 06:00N 36°18' W 019°59'0 0.5 1004.9
2014-Nov-19 05:00N 36°18' W 019°58'1 1.2 1005.1
2014-Nov-19 04:00N 36°19' W 019°58'0 0.0 1006.0
2014-Nov-19 03:00N 36°19' W 019°58'2 0.6 1006.9
2014-Nov-18 23:00N 36°22' W 019°58'0 0.5 1009.4
2014-Nov-18 22:00N 36°22' W 019°59'1 0.6 1010.1
2014-Nov-18 21:00N 36°22' W 019°59'2 1.6 1010.7
2014-Nov-18 20:00N 36°23' W 019°58'1 0.5 1010.7
2014-Nov-18 19:00N 36°24' W 019°58'1 1.0 1010.9
2014-Nov-18 18:00N 36°24' W 019°59'1 0.8 1011.0
2014-Nov-18 17:00N 36°25' W 019°59'1 1.3 1011.2
2014-Nov-18 16:00N 36°26' W 019°58'1 1.3 1010.9
2014-Nov-18 15:00N 36°28' W 019°59'0 0.0 1011.2
2014-Nov-18 14:00N 36°28' W 019°59'1 1.4 1011.4
2014-Nov-18 13:00N 36°29' W 019°59'0 0.4 1011.9
2014-Nov-18 12:00N 36°29' W 019°59'0 0.1 1012.5
2014-Nov-18 11:00N 36°29' W 019°59'0 0.0 1012.2
2014-Nov-18 10:00N 36°29' W 019°59'3 1.4 1011.7
2014-Nov-18 08:00N 36°32' W 020°01'0 0.0 1010.7
2014-Nov-18 07:00N 36°32' W 020°01'1 1.1 1009.9
2014-Nov-18 06:00N 36°32' W 020°00'1 1.1 1010.0
2014-Nov-18 05:00N 36°33' W 020°01'1 1.3 1010.1
2014-Nov-18 04:00N 36°34' W 020°02'4 4.2 1009.8
2014-Nov-18 03:00N 36°38' W 020°02'0 0.0 1009.5
2014-Nov-18 01:00N 36°38' W 020°02'1 0.4 1009.1
2014-Nov-17 23:00N 36°39' W 020°02'2 2.0 1008.3
2014-Nov-17 22:00N 36°41' W 020°03'0 0.0 1007.8
2014-Nov-17 21:00N 36°41' W 020°03'2 1.6 1007.8
2014-Nov-17 20:00N 36°41' W 020°05'1 0.6 1007.5
2014-Nov-17 19:00N 36°42' W 020°05'1 1.0 1007.5
2014-Nov-17 18:00N 36°42' W 020°06'1 0.6 1007.0
2014-Nov-17 17:00N 36°43' W 020°06'2 1.6 1007.5
2014-Nov-17 16:00N 36°43' W 020°08'0 0.0 1007.4
2014-Nov-17 15:00N 36°43' W 020°08'2 1.5 1007.7
2014-Nov-17 14:00N 36°43' W 020°10'1 0.9 1008.2
2014-Nov-17 13:00N 36°43' W 020°11'0 0.0 1008.7
2014-Nov-17 12:00N 36°43' W 020°11'0 0.5 1009.5
2014-Nov-17 11:00N 36°43' W 020°11'0 0.5 1009.6
2014-Nov-17 10:00N 36°43' W 020°12'0 0.0 1009.9
2014-Nov-17 09:00N 36°43' W 020°12'1 0.8 1009.6
2014-Nov-17 08:00N 36°43' W 020°13'0 0.5 1009.3
2014-Nov-17 07:00N 36°43' W 020°12'0 0.0 1009.3
2014-Nov-17 06:00N 36°43' W 020°12'1 1.2 1009.6
2014-Nov-17 05:00N 36°44' W 020°12'1 0.3 1009.6
2014-Nov-17 03:00N 36°43' W 020°12'1 1.3 1010.3
2014-Nov-17 02:00N 36°44' W 020°13'0 0.0 1010.6
2014-Nov-17 01:00N 36°44' W 020°13'2 1.1 1011.0
2014-Nov-16 23:00N 36°46' W 020°15'1 0.8 1011.6
2014-Nov-16 22:00N 36°46' W 020°16'0 0.2 1011.5
2014-Nov-16 21:00N 36°46' W 020°15'1 1.3 1011.6
2014-Nov-16 20:00N 36°46' W 020°17'0 0.5 1011.6
2014-Nov-16 19:00N 36°46' W 020°17'0 0.0 1011.5
2014-Nov-16 18:00N 36°46' W 020°17'2 1.6 1011.8
2014-Nov-16 17:00N 36°45' W 020°19'0 0.0 1012.1
2014-Nov-16 15:00N 36°45' W 020°19'1 0.6 1012.3
2014-Nov-16 13:00N 36°44' W 020°20'1 0.8 1013.9
2014-Nov-16 12:00N 36°44' W 020°20'0 0.0 1014.6
2014-Nov-16 11:00N 36°44' W 020°20'0 0.5 1015.3
2014-Nov-16 10:00N 36°44' W 020°20'1 1.1 1015.1
2014-Nov-16 09:00N 36°44' W 020°19'1 0.5 1015.2
2014-Nov-16 07:00N 36°44' W 020°20'1 0.5 1014.7
2014-Nov-16 05:00N 36°44' W 020°22'0 0.0 1015.2
2014-Nov-16 04:00N 36°44' W 020°22'1 1.1 1015.6
2014-Nov-16 03:00N 36°44' W 020°23'1 1.1 1015.9
2014-Nov-16 02:00N 36°43' W 020°24'1 1.2 1016.2
2014-Nov-16 01:00N 36°44' W 020°23'1 0.6 1016.5
2014-Nov-15 23:00N 36°43' W 020°24'1 0.6 1017.2
2014-Nov-15 22:00N 36°43' W 020°24'0 0.0 1017.2
2014-Nov-15 21:00N 36°43' W 020°24'0 0.5 1017.6
2014-Nov-15 20:00N 36°43' W 020°25'1 0.8 1017.9
2014-Nov-15 19:00N 36°42' W 020°25'0 0.0 1018.1
2014-Nov-15 18:00N 36°42' W 020°25'1 0.8 1018.2
2014-Nov-15 17:00N 36°41' W 020°26'0 0.2 1017.9
2014-Nov-15 15:00N 36°41' W 020°25'1 0.5 1018.1
2014-Nov-15 13:00N 36°41' W 020°26'0 0.0 1019.4
2014-Nov-15 12:00N 36°41' W 020°26'1 0.3 1020.0
2014-Nov-15 10:00N 36°42' W 020°26'1 1.0 1020.3
2014-Nov-15 09:00N 36°42' W 020°28'1 0.4 1019.7
2014-Nov-15 07:00N 36°43' W 020°28'1 1.1 1019.3
2014-Nov-15 06:00N 36°42' W 020°27'2 2.5 1019.3
2014-Nov-15 05:00N 36°43' W 020°30'0 0.5 1019.2
2014-Nov-15 04:00N 36°43' W 020°29'2 1.6 1019.5
2014-Nov-15 03:00N 36°42' W 020°31'0 0.0 1019.6
2014-Nov-15 02:00N 36°42' W 020°31'2 0.6 1019.5
2014-Nov-14 23:00N 36°42' W 020°34'1 1.0 1019.6
2014-Nov-14 22:00N 36°42' W 020°35'1 0.6 1019.5
2014-Nov-14 21:00N 36°41' W 020°35'1 1.0 1019.1
2014-Nov-14 20:00N 36°41' W 020°36'0 0.0 1018.6
2014-Nov-14 19:00N 36°41' W 020°36'1 0.6 1017.9
2014-Nov-14 18:00N 36°41' W 020°36'1 1.0 1017.2
2014-Nov-14 17:00N 36°41' W 020°35'1 0.4 1016.7
2014-Nov-14 15:00N 36°41' W 020°36'0 0.3 1015.9
2014-Nov-14 14:00N 36°41' W 020°36'1 0.6 1016.0
2014-Nov-14 12:00N 36°41' W 020°37'1 0.6 1016.4
2014-Nov-14 11:00N 36°42' W 020°37'1 1.3 1016.3
2014-Nov-14 10:00N 36°43' W 020°38'2 1.9 1015.6
2014-Nov-14 09:00N 36°43' W 020°40'0 0.0 1014.8
2014-Nov-14 08:00N 36°43' W 020°40'1 1.1 1014.2
2014-Nov-14 07:00N 36°44' W 020°41'2 1.9 1013.8
2014-Nov-14 06:00N 36°44' W 020°44'0 0.0 1013.4
2014-Nov-14 05:00N 36°44' W 020°44'1 1.0 1013.0
2014-Nov-14 04:00N 36°44' W 020°45'2 1.2 1013.1
2014-Nov-14 02:00N 36°43' W 020°48'1 0.3 1013.0
2014-Nov-13 23:00N 36°44' W 020°47'0 0.0 1012.8
2014-Nov-13 22:00N 36°44' W 020°47'0 0.5 1012.5
2014-Nov-13 21:00N 36°44' W 020°48'1 0.8 1012.1
2014-Nov-13 20:00N 36°44' W 020°49'0 0.5 1011.6
2014-Nov-13 19:00N 36°44' W 020°48'1 1.1 1011.4
2014-Nov-13 18:00N 36°45' W 020°49'1 1.1 1010.8
2014-Nov-13 17:00N 36°46' W 020°50'0 0.0 1010.7
2014-Nov-13 16:00N 36°46' W 020°50'2 1.9 1010.4
2014-Nov-13 15:00N 36°47' W 020°52'0 0.0 1010.4
2014-Nov-13 14:00N 36°47' W 020°52'2 1.1 1010.3
2014-Nov-13 12:00N 36°48' W 020°55'1 1.1 1011.1
2014-Nov-13 11:00N 36°47' W 020°56'0 0.0 1011.1
2014-Nov-13 10:00N 36°47' W 020°56'2 1.2 1011.0
2014-Nov-13 08:00N 36°47' W 020°59'0 0.0 1010.3
2014-Nov-13 07:00N 36°47' W 020°59'0 0.5 1010.2
2014-Nov-13 06:00N 36°47' W 020°59'1 1.1 1010.3
2014-Nov-13 05:00N 36°46' W 021°01'0 0.5 1010.4
2014-Nov-13 04:00N 36°46' W 021°00'2 1.0 1010.9
2014-Nov-13 02:00N 36°47' W 021°02'0 0.0 1011.3
2014-Nov-13 00:00N 36°47' W 021°02'0 0.2 1011.7
2014-Nov-12 22:00N 36°47' W 021°03'0 0.5 1012.1
2014-Nov-12 21:00N 36°47' W 021°02'1 0.6 1011.9
2014-Nov-12 19:00N 36°47' W 021°04'0 0.0 1010.8
2014-Nov-12 18:00N 36°47' W 021°04'1 1.0 1010.4
2014-Nov-12 17:00N 36°47' W 021°05'1 0.8 1010.1
2014-Nov-12 16:00N 36°48' W 021°05'2 1.6 1009.7
2014-Nov-12 15:00N 36°47' W 021°07'0 0.3 1010.0
2014-Nov-12 14:00N 36°48' W 021°07'2 0.6 1010.8
2014-Nov-12 11:00N 36°47' W 021°09'1 1.4 1013.0
2014-Nov-12 10:00N 36°47' W 021°11'0 0.0 1013.0
2014-Nov-12 08:00N 36°47' W 021°11'0 0.0 1012.4
2014-Nov-12 07:00N 36°47' W 021°11'1 0.8 1012.5
2014-Nov-12 06:00N 36°48' W 021°11'0 0.5 1012.6
2014-Nov-12 05:00N 36°48' W 021°12'2 2.3 1012.6
2014-Nov-12 04:00N 36°49' W 021°14'0 0.0 1013.0
2014-Nov-12 03:00N 36°49' W 021°14'0 0.0 1013.1
2014-Nov-12 02:00N 36°49' W 021°14'2 0.5 1012.8
2014-Nov-11 23:00N 36°49' W 021°16'   1014.7
Track history (hours):
 
Tides and Currents Weather Stations Pressure Air Temp Water Temp Dewpoint Dewpoint Depression Visibility Wind Speed Wind Dir Waves Ship Positions

Drifting buoy 41560

Last reported at 2014-Nov-21 23:00 UTC. Time now 2014-Nov-22 03:05 UTC.
Position N 35°53' W 019°45'.

Barometer 1015.5 mb

Date/timePositionNaut miles runAvg speedWind from/ knotsBaromVisibWave heightAir tempDewpointWater temp
2014-Nov-21 23:00N 35°53' W 019°45'0 0.0 1015.5
2014-Nov-21 21:00N 35°53' W 019°45'1 1.3 1014.9
2014-Nov-21 20:00N 35°55' W 019°46'1 0.3 1014.1
2014-Nov-21 18:00N 35°54' W 019°46'1 0.8 1013.3
2014-Nov-21 17:00N 35°55' W 019°46'1 0.6 1013.0
2014-Nov-21 16:00N 35°55' W 019°46'1 0.4 1012.6
2014-Nov-21 14:00N 35°56' W 019°47'3 0.9 1012.6
2014-Nov-21 11:00N 35°57' W 019°50'0 0.0 1013.6
2014-Nov-21 10:00N 35°57' W 019°50'2 1.9 1013.0
2014-Nov-21 09:00N 35°57' W 019°52'0 0.0 1011.8
2014-Nov-21 08:00N 35°57' W 019°52'0 0.0 1011.8
2014-Nov-21 06:00N 35°57' W 019°52'1 0.8 1009.5
2014-Nov-21 05:00N 35°56' W 019°53'1 1.0 1010.0
2014-Nov-21 04:00N 35°56' W 019°52'1 1.1 1009.7
2014-Nov-21 03:00N 35°57' W 019°53'0 0.5 1009.5
2014-Nov-21 02:00N 35°57' W 019°53'1 0.2 1008.7
2014-Nov-20 22:00N 35°57' W 019°55'2 1.0 1007.0
2014-Nov-20 20:00N 35°59' W 019°56'1 0.8 1006.6
2014-Nov-20 19:00N 35°58' W 019°56'1 0.8 1005.4
2014-Nov-20 18:00N 35°59' W 019°56'1 0.7 1004.7
2014-Nov-20 17:00N 35°59' W 019°57'0 0.3 1004.1
2014-Nov-20 16:00N 35°59' W 019°56'2 1.2 1003.5
2014-Nov-20 14:00N 36°01' W 019°58'0 0.2 1004.1
2014-Nov-20 12:00N 36°01' W 019°59'1 1.0 1004.8
2014-Nov-20 11:00N 36°01' W 020°00'1 0.8 1004.9
2014-Nov-20 10:00N 36°02' W 019°59'0 0.0 1005.1
2014-Nov-20 09:00N 36°02' W 019°59'1 1.1 1004.8
2014-Nov-20 08:00N 36°02' W 020°01'1 0.8 1004.1
2014-Nov-20 07:00N 36°03' W 020°01'1 0.6 1003.8
2014-Nov-20 06:00N 36°04' W 020°01'0 0.0 1003.6
2014-Nov-20 05:00N 36°04' W 020°01'1 1.3 1004.0
2014-Nov-20 04:00N 36°05' W 020°02'0 0.0 1004.1
2014-Nov-20 03:00N 36°05' W 020°02'2 1.9 1004.2
2014-Nov-20 02:00N 36°07' W 020°02'2 0.6 1004.5
2014-Nov-19 23:00N 36°08' W 020°02'0 0.2 1004.9
2014-Nov-19 22:00N 36°08' W 020°02'1 0.8 1004.9
2014-Nov-19 21:00N 36°09' W 020°02'1 0.8 1004.8
2014-Nov-19 20:00N 36°10' W 020°02'0 0.5 1004.7
2014-Nov-19 19:00N 36°10' W 020°02'2 1.5 1004.3
2014-Nov-19 18:00N 36°11' W 020°01'1 1.0 1004.0
2014-Nov-19 17:00N 36°11' W 020°02'1 1.3 1003.6
2014-Nov-19 16:00N 36°12' W 020°01'2 1.0 1003.6
2014-Nov-19 14:00N 36°14' W 020°00'1 0.6 1004.0
2014-Nov-19 12:00N 36°15' W 020°00'0 0.5 1005.3
2014-Nov-19 11:00N 36°15' W 020°01'2 1.6 1005.4
2014-Nov-19 10:00N 36°16' W 019°59'1 1.3 1005.4
2014-Nov-19 09:00N 36°17' W 019°59'1 0.4 1005.1
2014-Nov-19 07:00N 36°17' W 019°59'1 0.6 1004.7
2014-Nov-19 06:00N 36°18' W 019°59'0 0.5 1004.9
2014-Nov-19 05:00N 36°18' W 019°58'1 1.2 1005.1
2014-Nov-19 04:00N 36°19' W 019°58'0 0.0 1006.0
2014-Nov-19 03:00N 36°19' W 019°58'2 0.6 1006.9
2014-Nov-18 23:00N 36°22' W 019°58'0 0.5 1009.4
2014-Nov-18 22:00N 36°22' W 019°59'1 0.6 1010.1
2014-Nov-18 21:00N 36°22' W 019°59'2 1.6 1010.7
2014-Nov-18 20:00N 36°23' W 019°58'1 0.5 1010.7
2014-Nov-18 19:00N 36°24' W 019°58'1 1.0 1010.9
2014-Nov-18 18:00N 36°24' W 019°59'1 0.8 1011.0
2014-Nov-18 17:00N 36°25' W 019°59'1 1.3 1011.2
2014-Nov-18 16:00N 36°26' W 019°58'1 1.3 1010.9
2014-Nov-18 15:00N 36°28' W 019°59'0 0.0 1011.2
2014-Nov-18 14:00N 36°28' W 019°59'1 1.4 1011.4
2014-Nov-18 13:00N 36°29' W 019°59'0 0.4 1011.9
2014-Nov-18 12:00N 36°29' W 019°59'0 0.1 1012.5
2014-Nov-18 11:00N 36°29' W 019°59'0 0.0 1012.2
2014-Nov-18 10:00N 36°29' W 019°59'3 1.4 1011.7
2014-Nov-18 08:00N 36°32' W 020°01'0 0.0 1010.7
2014-Nov-18 07:00N 36°32' W 020°01'1 1.1 1009.9
2014-Nov-18 06:00N 36°32' W 020°00'1 1.1 1010.0
2014-Nov-18 05:00N 36°33' W 020°01'1 1.3 1010.1
2014-Nov-18 04:00N 36°34' W 020°02'4 4.2 1009.8
2014-Nov-18 03:00N 36°38' W 020°02'0 0.0 1009.5
2014-Nov-18 01:00N 36°38' W 020°02'1 0.4 1009.1
2014-Nov-17 23:00N 36°39' W 020°02'2 2.0 1008.3
2014-Nov-17 22:00N 36°41' W 020°03'0 0.0 1007.8
2014-Nov-17 21:00N 36°41' W 020°03'2 1.6 1007.8
2014-Nov-17 20:00N 36°41' W 020°05'1 0.6 1007.5
2014-Nov-17 19:00N 36°42' W 020°05'1 1.0 1007.5
2014-Nov-17 18:00N 36°42' W 020°06'1 0.6 1007.0
2014-Nov-17 17:00N 36°43' W 020°06'2 1.6 1007.5
2014-Nov-17 16:00N 36°43' W 020°08'0 0.0 1007.4
2014-Nov-17 15:00N 36°43' W 020°08'2 1.5 1007.7
2014-Nov-17 14:00N 36°43' W 020°10'1 0.9 1008.2
2014-Nov-17 13:00N 36°43' W 020°11'0 0.0 1008.7
2014-Nov-17 12:00N 36°43' W 020°11'0 0.5 1009.5
2014-Nov-17 11:00N 36°43' W 020°11'0 0.5 1009.6
2014-Nov-17 10:00N 36°43' W 020°12'0 0.0 1009.9
2014-Nov-17 09:00N 36°43' W 020°12'1 0.8 1009.6
2014-Nov-17 08:00N 36°43' W 020°13'0 0.5 1009.3
2014-Nov-17 07:00N 36°43' W 020°12'0 0.0 1009.3
2014-Nov-17 06:00N 36°43' W 020°12'1 1.2 1009.6
2014-Nov-17 05:00N 36°44' W 020°12'1 0.3 1009.6
2014-Nov-17 03:00N 36°43' W 020°12'1 1.3 1010.3
2014-Nov-17 02:00N 36°44' W 020°13'0 0.0 1010.6
2014-Nov-17 01:00N 36°44' W 020°13'2 1.1 1011.0
2014-Nov-16 23:00N 36°46' W 020°15'1 0.8 1011.6
2014-Nov-16 22:00N 36°46' W 020°16'0 0.2 1011.5
2014-Nov-16 21:00N 36°46' W 020°15'1 1.3 1011.6
2014-Nov-16 20:00N 36°46' W 020°17'0 0.5 1011.6
2014-Nov-16 19:00N 36°46' W 020°17'0 0.0 1011.5
2014-Nov-16 18:00N 36°46' W 020°17'2 1.6 1011.8
2014-Nov-16 17:00N 36°45' W 020°19'0 0.0 1012.1
2014-Nov-16 15:00N 36°45' W 020°19'1 0.6 1012.3
2014-Nov-16 13:00N 36°44' W 020°20'1 0.8 1013.9
2014-Nov-16 12:00N 36°44' W 020°20'0 0.0 1014.6
2014-Nov-16 11:00N 36°44' W 020°20'0 0.5 1015.3
2014-Nov-16 10:00N 36°44' W 020°20'1 1.1 1015.1
2014-Nov-16 09:00N 36°44' W 020°19'1 0.5 1015.2
2014-Nov-16 07:00N 36°44' W 020°20'1 0.5 1014.7
2014-Nov-16 05:00N 36°44' W 020°22'0 0.0 1015.2
2014-Nov-16 04:00N 36°44' W 020°22'1 1.1 1015.6
2014-Nov-16 03:00N 36°44' W 020°23'1 1.1 1015.9
2014-Nov-16 02:00N 36°43' W 020°24'1 1.2 1016.2
2014-Nov-16 01:00N 36°44' W 020°23'1 0.6 1016.5
2014-Nov-15 23:00N 36°43' W 020°24'1 0.6 1017.2
2014-Nov-15 22:00N 36°43' W 020°24'0 0.0 1017.2
2014-Nov-15 21:00N 36°43' W 020°24'0 0.5 1017.6
2014-Nov-15 20:00N 36°43' W 020°25'1 0.8 1017.9
2014-Nov-15 19:00N 36°42' W 020°25'0 0.0 1018.1
2014-Nov-15 18:00N 36°42' W 020°25'1 0.8 1018.2
2014-Nov-15 17:00N 36°41' W 020°26'0 0.2 1017.9
2014-Nov-15 15:00N 36°41' W 020°25'1 0.5 1018.1
2014-Nov-15 13:00N 36°41' W 020°26'0 0.0 1019.4
2014-Nov-15 12:00N 36°41' W 020°26'1 0.3 1020.0
2014-Nov-15 10:00N 36°42' W 020°26'1 1.0 1020.3
2014-Nov-15 09:00N 36°42' W 020°28'1 0.4 1019.7
2014-Nov-15 07:00N 36°43' W 020°28'1 1.1 1019.3
2014-Nov-15 06:00N 36°42' W 020°27'2 2.5 1019.3
2014-Nov-15 05:00N 36°43' W 020°30'0 0.5 1019.2
2014-Nov-15 04:00N 36°43' W 020°29'2 1.6 1019.5
2014-Nov-15 03:00N 36°42' W 020°31'0 0.0 1019.6
2014-Nov-15 02:00N 36°42' W 020°31'2 0.6 1019.5
2014-Nov-14 23:00N 36°42' W 020°34'1 1.0 1019.6
2014-Nov-14 22:00N 36°42' W 020°35'1 0.6 1019.5
2014-Nov-14 21:00N 36°41' W 020°35'1 1.0 1019.1
2014-Nov-14 20:00N 36°41' W 020°36'0 0.0 1018.6
2014-Nov-14 19:00N 36°41' W 020°36'1 0.6 1017.9
2014-Nov-14 18:00N 36°41' W 020°36'1 1.0 1017.2
2014-Nov-14 17:00N 36°41' W 020°35'1 0.4 1016.7
2014-Nov-14 15:00N 36°41' W 020°36'0 0.3 1015.9
2014-Nov-14 14:00N 36°41' W 020°36'1 0.6 1016.0
2014-Nov-14 12:00N 36°41' W 020°37'1 0.6 1016.4
2014-Nov-14 11:00N 36°42' W 020°37'1 1.3 1016.3
2014-Nov-14 10:00N 36°43' W 020°38'2 1.9 1015.6
2014-Nov-14 09:00N 36°43' W 020°40'0 0.0 1014.8
2014-Nov-14 08:00N 36°43' W 020°40'1 1.1 1014.2
2014-Nov-14 07:00N 36°44' W 020°41'2 1.9 1013.8
2014-Nov-14 06:00N 36°44' W 020°44'0 0.0 1013.4
2014-Nov-14 05:00N 36°44' W 020°44'1 1.0 1013.0
2014-Nov-14 04:00N 36°44' W 020°45'2 1.2 1013.1
2014-Nov-14 02:00N 36°43' W 020°48'1 0.3 1013.0
2014-Nov-13 23:00N 36°44' W 020°47'0 0.0 1012.8
2014-Nov-13 22:00N 36°44' W 020°47'0 0.5 1012.5
2014-Nov-13 21:00N 36°44' W 020°48'1 0.8 1012.1
2014-Nov-13 20:00N 36°44' W 020°49'0 0.5 1011.6
2014-Nov-13 19:00N 36°44' W 020°48'1 1.1 1011.4
2014-Nov-13 18:00N 36°45' W 020°49'1 1.1 1010.8
2014-Nov-13 17:00N 36°46' W 020°50'0 0.0 1010.7
2014-Nov-13 16:00N 36°46' W 020°50'2 1.9 1010.4
2014-Nov-13 15:00N 36°47' W 020°52'0 0.0 1010.4
2014-Nov-13 14:00N 36°47' W 020°52'2 1.1 1010.3
2014-Nov-13 12:00N 36°48' W 020°55'1 1.1 1011.1
2014-Nov-13 11:00N 36°47' W 020°56'0 0.0 1011.1
2014-Nov-13 10:00N 36°47' W 020°56'2 1.2 1011.0
2014-Nov-13 08:00N 36°47' W 020°59'0 0.0 1010.3
2014-Nov-13 07:00N 36°47' W 020°59'0 0.5 1010.2
2014-Nov-13 06:00N 36°47' W 020°59'1 1.1 1010.3
2014-Nov-13 05:00N 36°46' W 021°01'0 0.5 1010.4
2014-Nov-13 04:00N 36°46' W 021°00'2 1.0 1010.9
2014-Nov-13 02:00N 36°47' W 021°02'0 0.0 1011.3
2014-Nov-13 00:00N 36°47' W 021°02'0 0.2 1011.7
2014-Nov-12 22:00N 36°47' W 021°03'0 0.5 1012.1
2014-Nov-12 21:00N 36°47' W 021°02'1 0.6 1011.9
2014-Nov-12 19:00N 36°47' W 021°04'0 0.0 1010.8
2014-Nov-12 18:00N 36°47' W 021°04'1 1.0 1010.4
2014-Nov-12 17:00N 36°47' W 021°05'1 0.8 1010.1
2014-Nov-12 16:00N 36°48' W 021°05'2 1.6 1009.7
2014-Nov-12 15:00N 36°47' W 021°07'0 0.3 1010.0
2014-Nov-12 14:00N 36°48' W 021°07'2 0.6 1010.8
2014-Nov-12 11:00N 36°47' W 021°09'1 1.4 1013.0
2014-Nov-12 10:00N 36°47' W 021°11'0 0.0 1013.0
2014-Nov-12 08:00N 36°47' W 021°11'0 0.0 1012.4
2014-Nov-12 07:00N 36°47' W 021°11'1 0.8 1012.5
2014-Nov-12 06:00N 36°48' W 021°11'0 0.5 1012.6
2014-Nov-12 05:00N 36°48' W 021°12'2 2.3 1012.6
2014-Nov-12 04:00N 36°49' W 021°14'0 0.0 1013.0
2014-Nov-12 03:00N 36°49' W 021°14'0 0.0 1013.1
2014-Nov-12 02:00N 36°49' W 021°14'2 0.5 1012.8
2014-Nov-11 23:00N 36°49' W 021°16'   1014.7

Dump ship's entire track history